Time;durP1;ratioP1;P1;durP2;ratioP2;P2;SDS_P1;SDS_P2;PMS_P1;PMS_P2;Temp;Humidity;BMP_temperature;BMP_pressure;BME280_temperature;BME280_humidity;BME280_pressure;Samples;Min_cycle;Max_cycle;Signal;HPM_P1;HPM_P2
2022/04/19 00:01:50;;;;;;;;;;;9.10;95.60;;;;;;5004890;28;20398;-68
2022/04/19 00:04:18;;;;;;;;;;;9.10;95.50;;;;;;5001201;28;20039;-67
2022/04/19 00:06:44;;;;;;;;;;;9.10;95.60;;;;;;5003733;28;20359;-67
2022/04/19 00:09:09;;;;;;;;;;;9.00;95.50;;;;;;5000375;28;19921;-67
2022/04/19 00:11:36;;;;;;;;;;;9.00;95.60;;;;;;5007378;28;20287;-67
2022/04/19 00:14:02;;;;;;;;;;;9.00;95.80;;;;;;4999431;28;19929;-67
2022/04/19 00:16:27;;;;;;;;;;;8.90;95.80;;;;;;4998384;28;19928;-67
2022/04/19 00:18:53;;;;;;;;;;;8.80;96.20;;;;;;5005732;28;19929;-67
2022/04/19 00:21:19;;;;;;;;;;;9.20;96.30;;;;;;5004685;28;19921;-68
2022/04/19 00:23:46;;;;;;;;;;;8.80;96.40;;;;;;4997189;28;19921;-68
2022/04/19 00:26:12;;;;;;;;;;;8.70;96.70;;;;;;5001595;28;20310;-67
2022/04/19 00:28:37;;;;;;;;;;;8.70;96.50;;;;;;5006999;28;19921;-67
2022/04/19 00:31:06;;;;;;;;;;;8.70;96.00;;;;;;4999956;28;20346;-68
2022/04/19 00:33:32;;;;;;;;;;;8.70;96.70;;;;;;5006891;28;20016;-67
2022/04/19 00:35:58;;;;;;;;;;;8.60;96.50;;;;;;5003805;28;19922;-67
2022/04/19 00:38:23;;;;;;;;;;;8.60;96.90;;;;;;5001761;28;19928;-68
2022/04/19 00:40:49;;;;;;;;;;;8.60;97.00;;;;;;5002092;28;20035;-67
2022/04/19 00:43:16;;;;;;;;;;;8.50;97.00;;;;;;5006327;28;20024;-67
2022/04/19 00:45:42;;;;;;;;;;;8.50;96.90;;;;;;5003339;28;19929;-67
2022/04/19 00:48:07;;;;;;;;;;;8.50;97.10;;;;;;5000778;28;19922;-67
2022/04/19 00:50:33;;;;;;;;;;;8.40;97.50;;;;;;5022091;28;19922;-68
2022/04/19 00:53:00;;;;;;;;;;;8.40;97.30;;;;;;5000976;28;20007;-68
2022/04/19 00:55:25;;;;;;;;;;;8.40;97.50;;;;;;5003352;28;20360;-68
2022/04/19 00:57:51;;;;;;;;;;;8.90;97.70;;;;;;5004120;28;19928;-67
2022/04/19 01:00:17;;;;;;;;;;;8.30;97.50;;;;;;4999718;28;20002;-68
2022/04/19 01:02:42;;;;;;;;;;;8.30;97.40;;;;;;5020864;28;20299;-67
2022/04/19 01:05:08;;;;;;;;;;;8.20;97.90;;;;;;5000370;28;20298;-67
2022/04/19 01:07:34;;;;;;;;;;;8.20;98.30;;;;;;5006594;28;19925;-67
2022/04/19 01:10:00;;;;;;;;;;;9.40;98.60;;;;;;5001210;28;19921;-67
2022/04/19 01:15:11;;;;;;;;;;;8.20;98.60;;;;;;4999694;28;19928;-68
2022/04/19 01:17:40;;;;;;;;;;;8.10;99.00;;;;;;5000235;28;19921;-68
2022/04/19 01:20:10;;;;;;;;;;;8.10;99.20;;;;;;5007002;28;20002;-68
2022/04/19 01:22:36;;;;;;;;;;;8.10;99.30;;;;;;5005074;28;19925;-68
2022/04/19 01:25:02;;;;;;;;;;;8.00;99.60;;;;;;5022593;28;20394;-68
2022/04/19 01:27:28;;;;;;;;;;;8.00;99.90;;;;;;5003160;28;20973;-67
2022/04/19 01:30:00;;;;;;;;;;;8.00;99.90;;;;;;5001871;28;20272;-66
2022/04/19 01:32:26;;;;;;;;;;;8.20;99.90;;;;;;5006170;28;19921;-67
2022/04/19 01:35:04;;;;;;;;;;;7.90;99.90;;;;;;5007647;28;19989;-67
2022/04/19 01:37:32;;;;;;;;;;;8.10;99.90;;;;;;5009299;28;19929;-68
2022/04/19 01:42:49;;;;;;;;;;;7.90;99.90;;;;;;5007656;28;19917;-68
2022/04/19 01:45:18;;;;;;;;;;;7.80;99.90;;;;;;5002593;28;20016;-67
2022/04/19 01:47:44;;;;;;;;;;;7.80;99.90;;;;;;5003788;28;20059;-68
2022/04/19 01:50:11;;;;;;;;;;;7.80;99.90;;;;;;5003675;28;20016;-67
2022/04/19 01:52:37;;;;;;;;;;;7.80;99.90;;;;;;5002996;28;20026;-67
2022/04/19 01:55:04;;;;;;;;;;;7.80;99.90;;;;;;5017310;28;19925;-67
2022/04/19 01:57:30;;;;;;;;;;;7.60;99.90;;;;;;5002763;28;19930;-67
2022/04/19 01:59:55;;;;;;;;;;;7.60;99.90;;;;;;4999974;28;19922;-68
2022/04/19 02:02:22;;;;;;;;;;;7.60;99.90;;;;;;5003969;28;20072;-68
2022/04/19 02:04:50;;;;;;;;;;;7.50;99.90;;;;;;5006840;28;19967;-67
2022/04/19 02:07:16;;;;;;;;;;;7.50;99.90;;;;;;5007808;28;19922;-68
2022/04/19 02:09:41;;;;;;;;;;;7.50;99.90;;;;;;5006369;28;19921;-69
2022/04/19 02:12:09;;;;;;;;;;;7.40;99.90;;;;;;5008090;28;19968;-67
2022/04/19 02:14:34;;;;;;;;;;;7.40;99.90;;;;;;5007196;28;20028;-67
2022/04/19 02:17:00;;;;;;;;;;;7.40;99.90;;;;;;5005240;28;20053;-67
2022/04/19 02:19:25;;;;;;;;;;;7.30;99.90;;;;;;5007021;28;20016;-68
2022/04/19 02:21:51;;;;;;;;;;;7.50;99.90;;;;;;5004564;28;19937;-67
2022/04/19 02:24:16;;;;;;;;;;;7.30;99.90;;;;;;5011154;28;20438;-67
2022/04/19 02:26:42;;;;;;;;;;;7.30;99.90;;;;;;5008444;28;20021;-67
2022/04/19 02:29:08;;;;;;;;;;;7.30;99.90;;;;;;4998947;28;19980;-68
2022/04/19 02:31:33;;;;;;;;;;;7.20;99.90;;;;;;5008163;28;19991;-67
2022/04/19 02:33:59;;;;;;;;;;;7.30;99.90;;;;;;5008082;28;19922;-68
2022/04/19 02:36:25;;;;;;;;;;;7.30;99.90;;;;;;5005775;28;19933;-68
2022/04/19 02:38:51;;;;;;;;;;;7.30;99.90;;;;;;5010509;28;19921;-68
2022/04/19 02:41:16;;;;;;;;;;;7.20;99.90;;;;;;5002891;28;20031;-67
2022/04/19 02:43:42;;;;;;;;;;;7.20;99.90;;;;;;5009296;28;20033;-68
2022/04/19 02:46:07;;;;;;;;;;;7.20;99.90;;;;;;5007493;28;20273;-68
2022/04/19 02:48:33;;;;;;;;;;;7.20;99.90;;;;;;5004083;28;19948;-67
2022/04/19 02:51:00;;;;;;;;;;;7.30;99.90;;;;;;5011140;28;19964;-67
2022/04/19 02:53:26;;;;;;;;;;;7.30;99.90;;;;;;5008713;28;19975;-66
2022/04/19 02:55:51;;;;;;;;;;;7.30;99.90;;;;;;5001087;28;19965;-68
2022/04/19 02:58:17;;;;;;;;;;;7.40;99.90;;;;;;4995071;28;19949;-67
2022/04/19 03:00:43;;;;;;;;;;;7.40;99.90;;;;;;5005166;28;20368;-69
2022/04/19 03:03:09;;;;;;;;;;;7.40;99.90;;;;;;5006131;28;19921;-66
2022/04/19 03:05:38;;;;;;;;;;;7.30;99.90;;;;;;5016300;28;19957;-67
2022/04/19 03:08:03;;;;;;;;;;;7.40;99.90;;;;;;5000521;28;19933;-69
2022/04/19 03:10:29;;;;;;;;;;;7.40;99.90;;;;;;5003991;28;20367;-67
2022/04/19 03:12:54;;;;;;;;;;;7.40;99.90;;;;;;5005894;28;19922;-66
2022/04/19 03:15:20;;;;;;;;;;;7.40;99.90;;;;;;5011018;28;19921;-67
2022/04/19 03:17:46;;;;;;;;;;;7.40;99.90;;;;;;5001362;28;19929;-69
2022/04/19 03:20:12;;;;;;;;;;;7.40;99.90;;;;;;4998743;28;20255;-67
2022/04/19 03:28:06;;;;;;;;;;;7.30;99.90;;;;;;5008191;28;19921;-67
2022/04/19 03:30:32;;;;;;;;;;;7.30;99.90;;;;;;5004441;28;20035;-67
2022/04/19 03:32:59;;;;;;;;;;;7.30;99.90;;;;;;5008811;28;19921;-68
2022/04/19 03:35:25;;;;;;;;;;;7.30;99.90;;;;;;5003801;28;19921;-68
2022/04/19 03:37:50;;;;;;;;;;;8.20;99.90;;;;;;5007759;28;20020;-67
2022/04/19 03:40:16;;;;;;;;;;;7.30;99.90;;;;;;5002803;28;20007;-66
2022/04/19 03:42:42;;;;;;;;;;;7.30;99.90;;;;;;4999054;28;19921;-66
2022/04/19 03:45:08;;;;;;;;;;;7.30;99.90;;;;;;5008171;28;19929;-67
2022/04/19 03:47:34;;;;;;;;;;;7.30;99.90;;;;;;5003351;28;20291;-67
2022/04/19 03:50:00;;;;;;;;;;;7.30;99.90;;;;;;5005892;28;20345;-67
2022/04/19 03:52:26;;;;;;;;;;;7.30;99.90;;;;;;4998953;28;19921;-68
2022/04/19 03:54:52;;;;;;;;;;;7.30;99.90;;;;;;5004968;28;19968;-66
2022/04/19 03:57:18;;;;;;;;;;;7.30;99.90;;;;;;5004299;28;20004;-67
2022/04/19 03:59:44;;;;;;;;;;;7.30;99.90;;;;;;5009424;28;19921;-65
2022/04/19 04:02:09;;;;;;;;;;;7.20;99.90;;;;;;5006874;28;20376;-66
2022/04/19 04:04:36;;;;;;;;;;;7.20;99.90;;;;;;5003869;28;19935;-67
2022/04/19 04:07:02;;;;;;;;;;;7.20;99.90;;;;;;5001902;28;19922;-66
2022/04/19 04:09:35;;;;;;;;;;;7.10;99.90;;;;;;5002903;28;19975;-66
2022/04/19 04:12:05;;;;;;;;;;;7.10;99.90;;;;;;5003027;28;19925;-66
2022/04/19 04:14:30;;;;;;;;;;;7.10;99.90;;;;;;4996487;28;19932;-66
2022/04/19 04:16:56;;;;;;;;;;;7.10;99.90;;;;;;5000775;28;19926;-68
2022/04/19 04:19:22;;;;;;;;;;;7.10;99.90;;;;;;5000673;28;20256;-67
2022/04/19 04:21:47;;;;;;;;;;;7.20;99.90;;;;;;5001849;28;19921;-66
2022/04/19 04:24:13;;;;;;;;;;;7.10;99.90;;;;;;5000422;28;19921;-67
2022/04/19 04:26:38;;;;;;;;;;;7.10;99.90;;;;;;5001077;28;19929;-68
2022/04/19 04:29:04;;;;;;;;;;;7.10;99.90;;;;;;5018287;28;19925;-68
2022/04/19 04:31:29;;;;;;;;;;;7.00;99.90;;;;;;5006437;28;19925;-67
2022/04/19 04:33:55;;;;;;;;;;;7.00;99.90;;;;;;4994535;28;19926;-68
2022/04/19 04:36:20;;;;;;;;;;;7.00;99.90;;;;;;5011673;28;20355;-67
2022/04/19 04:38:46;;;;;;;;;;;6.90;99.90;;;;;;5024112;28;20364;-68
2022/04/19 04:41:12;;;;;;;;;;;6.90;99.90;;;;;;4996065;28;20352;-70
2022/04/19 04:43:39;;;;;;;;;;;6.80;99.90;;;;;;5002195;28;19949;-68
2022/04/19 04:51:36;;;;;;;;;;;6.80;99.90;;;;;;5005122;28;19936;-69
2022/04/19 04:54:02;;;;;;;;;;;7.00;99.90;;;;;;5007017;28;19922;-67
2022/04/19 04:56:27;;;;;;;;;;;6.80;99.90;;;;;;4996693;28;19928;-66
2022/04/19 04:58:53;;;;;;;;;;;7.00;99.90;;;;;;5005190;28;19976;-67
2022/04/19 05:01:18;;;;;;;;;;;6.80;99.90;;;;;;5000805;28;20020;-67
2022/04/19 05:03:44;;;;;;;;;;;6.80;99.90;;;;;;5019759;28;19927;-69
2022/04/19 05:06:09;;;;;;;;;;;6.80;99.90;;;;;;5020072;28;19968;-67
2022/04/19 05:08:35;;;;;;;;;;;6.90;99.90;;;;;;5008785;28;19968;-66
2022/04/19 05:11:00;;;;;;;;;;;6.90;99.90;;;;;;5022922;28;19921;-68
2022/04/19 05:13:26;;;;;;;;;;;6.90;99.90;;;;;;5007827;28;19925;-67
2022/04/19 05:15:51;;;;;;;;;;;7.00;99.90;;;;;;5010445;28;19929;-67
2022/04/19 05:18:17;;;;;;;;;;;7.00;99.90;;;;;;5008891;28;19928;-67
2022/04/19 05:20:43;;;;;;;;;;;7.10;99.90;;;;;;5007670;28;19993;-68
2022/04/19 05:23:09;;;;;;;;;;;7.10;99.90;;;;;;5004505;28;20425;-67
2022/04/19 05:25:34;;;;;;;;;;;7.20;99.90;;;;;;5002028;28;20295;-68
2022/04/19 05:28:00;;;;;;;;;;;7.20;99.90;;;;;;5010730;28;19928;-67
2022/04/19 05:30:26;;;;;;;;;;;7.30;99.90;;;;;;5004963;28;19972;-67
2022/04/19 05:32:51;;;;;;;;;;;7.30;99.90;;;;;;5008452;28;20026;-66
2022/04/19 05:35:17;;;;;;;;;;;7.40;99.90;;;;;;5008965;28;19925;-67
2022/04/19 05:37:42;;;;;;;;;;;7.30;99.90;;;;;;5007786;28;19921;-66
2022/04/19 05:40:08;;;;;;;;;;;7.60;99.90;;;;;;5003937;28;19932;-66
2022/04/19 05:42:34;;;;;;;;;;;7.80;99.90;;;;;;5001629;28;19928;-68
2022/04/19 05:45:00;;;;;;;;;;;8.00;99.90;;;;;;5005048;28;19929;-67
2022/04/19 05:47:25;;;;;;;;;;;8.10;99.90;;;;;;5007880;28;19929;-67
2022/04/19 05:49:51;;;;;;;;;;;8.10;99.90;;;;;;5013534;28;20459;-67
2022/04/19 05:52:17;;;;;;;;;;;8.20;99.90;;;;;;4995650;28;20414;-68
2022/04/19 05:54:43;;;;;;;;;;;8.20;99.90;;;;;;5001653;28;19922;-67
2022/04/19 05:57:11;;;;;;;;;;;8.20;99.90;;;;;;5009221;28;20009;-67
2022/04/19 05:59:37;;;;;;;;;;;8.40;99.90;;;;;;5012881;28;19925;-67
2022/04/19 06:04:53;;;;;;;;;;;8.50;99.90;;;;;;5014445;28;19928;-67
2022/04/19 06:07:25;;;;;;;;;;;8.60;99.90;;;;;;5013605;28;19921;-66
2022/04/19 06:09:51;;;;;;;;;;;8.80;99.90;;;;;;5006412;28;19922;-67
2022/04/19 06:12:16;;;;;;;;;;;9.00;99.90;;;;;;5014102;28;19960;-67
2022/04/19 06:14:42;;;;;;;;;;;9.30;99.90;;;;;;5000915;28;19922;-67
2022/04/19 06:17:11;;;;;;;;;;;9.60;99.90;;;;;;4995439;28;19922;-67
2022/04/19 06:19:37;;;;;;;;;;;10.40;99.90;;;;;;5009896;28;19960;-68
2022/04/19 06:22:03;;;;;;;;;;;10.70;99.90;;;;;;5014711;28;20410;-68
2022/04/19 06:24:28;;;;;;;;;;;11.10;99.90;;;;;;5027986;28;19921;-68
2022/04/19 06:26:55;;;;;;;;;;;11.40;99.90;;;;;;5013536;28;19929;-67
2022/04/19 06:29:20;;;;;;;;;;;11.70;99.90;;;;;;5011229;28;19922;-68
2022/04/19 06:31:46;;;;;;;;;;;12.30;99.90;;;;;;5009967;28;19968;-67
2022/04/19 06:34:12;;;;;;;;;;;12.40;99.90;;;;;;5000039;28;20029;-66
2022/04/19 06:36:37;;;;;;;;;;;12.70;99.90;;;;;;5028529;28;20838;-67
2022/04/19 06:39:03;;;;;;;;;;;12.90;99.90;;;;;;5013449;28;20379;-67
2022/04/19 06:41:29;;;;;;;;;;;12.70;99.30;;;;;;5009118;28;19929;-67
2022/04/19 06:43:58;;;;;;;;;;;12.50;99.40;;;;;;5002046;28;19925;-67
2022/04/19 06:46:25;;;;;;;;;;;12.20;99.50;;;;;;5007673;28;20075;-66
2022/04/19 06:48:54;;;;;;;;;;;12.20;99.90;;;;;;5022978;28;19925;-67
2022/04/19 06:51:20;;;;;;;;;;;12.50;99.90;;;;;;5006279;28;19925;-66
2022/04/19 06:53:45;;;;;;;;;;;13.10;99.10;;;;;;4996058;28;20020;-68
2022/04/19 06:56:11;;;;;;;;;;;13.30;98.20;;;;;;5002960;28;20363;-67
2022/04/19 06:58:39;;;;;;;;;;;13.40;97.20;;;;;;5014810;28;19980;-67
2022/04/19 07:01:05;;;;;;;;;;;13.60;97.80;;;;;;4998848;28;19932;-67
2022/04/19 07:03:30;;;;;;;;;;;13.70;97.10;;;;;;5010595;28;19925;-68
2022/04/19 07:05:56;;;;;;;;;;;14.00;97.20;;;;;;5008577;28;19933;-67
2022/04/19 07:08:22;;;;;;;;;;;13.20;97.60;;;;;;4999013;28;19925;-67
2022/04/19 07:10:47;;;;;;;;;;;13.10;97.90;;;;;;4996705;28;19933;-66
2022/04/19 07:13:13;;;;;;;;;;;13.00;98.40;;;;;;5010728;28;19925;-67
2022/04/19 07:15:39;;;;;;;;;;;13.10;98.50;;;;;;5008788;28;19925;-67
2022/04/19 07:18:05;;;;;;;;;;;12.90;98.30;;;;;;5001119;28;19925;-67
2022/04/19 07:28:43;;;;;;;;;;;12.70;98.20;;;;;;5006297;28;19926;-67
2022/04/19 07:31:08;;;;;;;;;;;12.80;98.10;;;;;;4989952;28;19932;-67
2022/04/19 07:33:38;;;;;;;;;;;12.80;98.10;;;;;;5009998;28;20349;-67
2022/04/19 07:36:04;;;;;;;;;;;12.90;98.20;;;;;;5002965;28;19921;-67
2022/04/19 07:38:30;;;;;;;;;;;12.90;97.50;;;;;;5000073;28;19922;-67
2022/04/19 07:40:55;;;;;;;;;;;13.10;97.90;;;;;;4993911;28;19968;-67
2022/04/19 07:43:21;;;;;;;;;;;13.30;97.80;;;;;;4992413;28;19941;-67
2022/04/19 07:45:46;;;;;;;;;;;13.30;97.10;;;;;;5005915;28;19953;-67
2022/04/19 07:48:12;;;;;;;;;;;13.30;97.30;;;;;;5028541;28;19925;-67
2022/04/19 07:50:39;;;;;;;;;;;13.40;97.10;;;;;;5012601;28;20019;-67
2022/04/19 07:53:05;;;;;;;;;;;13.40;97.10;;;;;;5012464;28;19928;-67
2022/04/19 07:55:31;;;;;;;;;;;13.40;96.60;;;;;;5012747;28;19921;-68
2022/04/19 07:57:56;;;;;;;;;;;13.60;96.70;;;;;;5012355;28;19922;-67
2022/04/19 08:00:22;;;;;;;;;;;13.60;96.50;;;;;;5012895;28;19925;-67
2022/04/19 08:02:48;;;;;;;;;;;13.80;96.60;;;;;;5013107;28;19922;-67
2022/04/19 08:05:14;;;;;;;;;;;13.90;96.20;;;;;;5012571;28;20276;-67
2022/04/19 08:07:39;;;;;;;;;;;14.00;95.10;;;;;;5011424;28;19937;-67
2022/04/19 08:10:05;;;;;;;;;;;14.10;94.90;;;;;;5008477;28;19925;-66
2022/04/19 08:12:31;;;;;;;;;;;14.10;93.00;;;;;;4992314;28;20068;-67
2022/04/19 08:14:57;;;;;;;;;;;14.10;92.20;;;;;;5002739;28;20033;-67
2022/04/19 08:17:22;;;;;;;;;;;14.10;91.50;;;;;;5013123;28;19925;-67
2022/04/19 08:19:48;;;;;;;;;;;14.20;90.90;;;;;;5013042;28;19929;-67
2022/04/19 08:22:14;;;;;;;;;;;14.20;90.50;;;;;;5012014;28;19929;-68
2022/04/19 08:24:40;;;;;;;;;;;14.20;91.00;;;;;;5012728;28;20001;-67
2022/04/19 08:27:05;;;;;;;;;;;14.40;90.80;;;;;;5011477;28;20012;-67
2022/04/19 08:29:31;;;;;;;;;;;14.50;90.00;;;;;;5011256;28;19921;-67
2022/04/19 08:31:56;;;;;;;;;;;14.60;89.40;;;;;;5010900;28;20012;-68
2022/04/19 08:34:22;;;;;;;;;;;14.70;86.70;;;;;;5012777;28;20340;-67
2022/04/19 08:36:47;;;;;;;;;;;14.70;84.40;;;;;;5010914;28;19921;-67
2022/04/19 08:39:13;;;;;;;;;;;14.70;82.60;;;;;;5007123;28;19922;-66
2022/04/19 08:41:39;;;;;;;;;;;14.80;80.50;;;;;;5004838;28;19918;-67
2022/04/19 08:44:05;;;;;;;;;;;14.90;79.80;;;;;;4998249;28;19921;-68
2022/04/19 08:46:37;;;;;;;;;;;15.00;78.40;;;;;;5015150;28;20385;-67
2022/04/19 08:49:04;;;;;;;;;;;15.00;77.30;;;;;;5016249;28;19928;-68
2022/04/19 08:51:34;;;;;;;;;;;15.20;77.20;;;;;;5015759;28;20469;-68
2022/04/19 08:59:31;;;;;;;;;;;15.20;75.30;;;;;;5002301;28;19940;-68
2022/04/19 09:01:57;;;;;;;;;;;15.40;75.50;;;;;;5005175;28;20437;-67
2022/04/19 09:04:23;;;;;;;;;;;15.60;76.50;;;;;;5006505;28;20402;-66
2022/04/19 09:06:50;;;;;;;;;;;15.70;76.10;;;;;;5019948;28;19969;-67
2022/04/19 09:09:19;;;;;;;;;;;15.80;75.20;;;;;;5031236;28;19949;-68
2022/04/19 09:11:44;;;;;;;;;;;16.00;76.10;;;;;;4995581;28;19921;-69
2022/04/19 09:14:10;;;;;;;;;;;15.90;74.50;;;;;;5000002;28;19922;-67
2022/04/19 09:16:36;;;;;;;;;;;15.80;74.40;;;;;;4995971;28;20283;-68
2022/04/19 09:19:07;;;;;;;;;;;15.80;75.00;;;;;;5008543;28;20318;-67
2022/04/19 09:21:40;;;;;;;;;;;15.80;75.00;;;;;;5012272;28;20415;-69
2022/04/19 09:24:21;;;;;;;;;;;16.00;75.60;;;;;;4998030;28;19922;-67
2022/04/19 09:26:50;;;;;;;;;;;16.00;74.00;;;;;;4994845;28;19976;-68
2022/04/19 09:29:21;;;;;;;;;;;16.20;73.20;;;;;;5005787;28;19928;-67
2022/04/19 09:31:50;;;;;;;;;;;16.30;73.30;;;;;;5015874;28;19983;-68
2022/04/19 09:34:29;;;;;;;;;;;16.30;73.00;;;;;;5013547;28;20013;-67
2022/04/19 09:37:10;;;;;;;;;;;16.50;73.90;;;;;;5015124;28;20342;-66
2022/04/19 09:39:37;;;;;;;;;;;16.30;71.20;;;;;;5015441;28;20172;-67
2022/04/19 09:42:14;;;;;;;;;;;16.30;72.60;;;;;;5015466;28;20324;-67
2022/04/19 09:44:41;;;;;;;;;;;16.40;72.80;;;;;;5015227;28;19965;-67
2022/04/19 09:47:08;;;;;;;;;;;16.50;72.50;;;;;;5014978;28;19944;-67
2022/04/19 09:50:06;;;;;;;;;;;16.50;71.50;;;;;;5014326;28;19922;-68
2022/04/19 09:52:33;;;;;;;;;;;16.60;72.00;;;;;;4983559;28;20012;-67
2022/04/19 09:54:59;;;;;;;;;;;16.80;72.60;;;;;;4995737;28;19921;-66
2022/04/19 09:57:24;;;;;;;;;;;17.00;71.70;;;;;;4991839;28;20374;-68
2022/04/19 09:59:51;;;;;;;;;;;17.10;71.20;;;;;;5015206;28;19921;-67
2022/04/19 10:10:31;;;;;;;;;;;17.50;69.50;;;;;;5015307;28;19948;-67
2022/04/19 10:12:57;;;;;;;;;;;17.50;69.00;;;;;;5004918;28;19921;-68
2022/04/19 10:15:22;;;;;;;;;;;17.60;68.60;;;;;;5012618;28;19943;-68
2022/04/19 10:17:48;;;;;;;;;;;17.60;67.60;;;;;;5014599;28;19928;-67
2022/04/19 10:20:14;;;;;;;;;;;17.60;67.30;;;;;;5014404;28;20012;-67
2022/04/19 10:22:47;;;;;;;;;;;18.00;69.20;;;;;;5008519;28;19925;-67
2022/04/19 10:25:16;;;;;;;;;;;17.60;67.80;;;;;;5006923;28;19921;-68
2022/04/19 10:27:42;;;;;;;;;;;18.00;68.90;;;;;;5014489;28;20348;-67
2022/04/19 10:30:08;;;;;;;;;;;18.20;68.00;;;;;;5014233;28;19929;-67
2022/04/19 10:32:34;;;;;;;;;;;18.30;67.70;;;;;;5012495;28;20020;-68
2022/04/19 10:35:00;;;;;;;;;;;18.40;66.70;;;;;;5014690;28;19922;-67
2022/04/19 10:37:29;;;;;;;;;;;18.50;67.50;;;;;;4996137;28;20003;-66
2022/04/19 10:39:58;;;;;;;;;;;18.60;67.00;;;;;;5013439;28;19945;-68
2022/04/19 10:42:33;;;;;;;;;;;18.50;66.40;;;;;;5012439;28;19925;-66
2022/04/19 10:45:17;;;;;;;;;;;18.80;66.00;;;;;;5014344;28;19929;-67
2022/04/19 10:48:03;;;;;;;;;;;19.00;67.50;;;;;;5013842;28;20406;-68
2022/04/19 10:50:35;;;;;;;;;;;19.00;64.40;;;;;;4993567;28;19922;-68
2022/04/19 10:53:04;;;;;;;;;;;18.80;63.40;;;;;;4994468;28;19925;-68
2022/04/19 10:55:30;;;;;;;;;;;19.00;64.50;;;;;;5001198;28;19992;-68
2022/04/19 10:58:23;;;;;;;;;;;19.20;63.90;;;;;;5014076;28;19922;-67
2022/04/19 11:01:05;;;;;;;;;;;19.10;63.90;;;;;;5013080;28;20616;-69
2022/04/19 11:03:35;;;;;;;;;;;19.00;63.60;;;;;;5012441;28;19928;-68
2022/04/19 11:06:02;;;;;;;;;;;19.40;64.20;;;;;;5013710;28;20440;-68
2022/04/19 11:08:31;;;;;;;;;;;19.70;62.60;;;;;;5012351;28;19925;-68
2022/04/19 11:11:02;;;;;;;;;;;19.70;62.50;;;;;;5010868;28;19930;-67
2022/04/19 11:13:29;;;;;;;;;;;19.70;62.10;;;;;;4999346;28;19921;-68
2022/04/19 11:15:55;;;;;;;;;;;19.90;61.60;;;;;;5004523;28;19929;-67
2022/04/19 11:18:22;;;;;;;;;;;19.90;61.60;;;;;;4993706;28;19922;-67
2022/04/19 11:20:51;;;;;;;;;;;19.80;60.70;;;;;;5012455;28;20291;-67
2022/04/19 11:23:18;;;;;;;;;;;19.90;60.80;;;;;;5018237;28;19922;-68
2022/04/19 11:25:45;;;;;;;;;;;20.00;60.60;;;;;;4993765;28;19929;-69
2022/04/19 11:28:11;;;;;;;;;;;20.10;60.00;;;;;;5004732;28;19931;-67
2022/04/19 11:30:57;;;;;;;;;;;20.10;59.50;;;;;;4996912;28;20000;-67
2022/04/19 11:33:23;;;;;;;;;;;20.30;59.70;;;;;;4997815;28;20376;-67
2022/04/19 11:36:20;;;;;;;;;;;19.70;58.70;;;;;;5008481;28;19925;-67
2022/04/19 11:38:49;;;;;;;;;;;20.10;60.40;;;;;;5006307;28;19925;-66
2022/04/19 11:46:59;;;;;;;;;;;20.70;58.80;;;;;;5006396;28;19972;-68
2022/04/19 11:49:25;;;;;;;;;;;20.50;58.20;;;;;;4995894;28;19929;-69
2022/04/19 11:51:52;;;;;;;;;;;20.70;59.60;;;;;;5009261;28;19932;-67
2022/04/19 11:54:19;;;;;;;;;;;20.60;57.90;;;;;;4993824;28;19964;-67
2022/04/19 11:56:44;;;;;;;;;;;20.80;56.80;;;;;;5009179;28;19932;-67
2022/04/19 11:59:10;;;;;;;;;;;20.90;58.20;;;;;;5009462;28;20290;-68
2022/04/19 12:01:36;;;;;;;;;;;21.20;59.00;;;;;;5008965;28;19932;-67
2022/04/19 12:04:11;;;;;;;;;;;21.10;57.90;;;;;;5002314;28;20398;-69
2022/04/19 12:06:36;;;;;;;;;;;21.10;58.10;;;;;;5005091;28;19941;-67
2022/04/19 12:09:02;;;;;;;;;;;21.20;58.90;;;;;;5008470;28;20387;-70
2022/04/19 12:11:28;;;;;;;;;;;21.30;56.60;;;;;;5009105;28;19925;-67
2022/04/19 12:13:54;;;;;;;;;;;21.20;55.60;;;;;;5009492;28;19926;-68
2022/04/19 12:16:25;;;;;;;;;;;21.00;55.90;;;;;;5005846;28;19926;-68
2022/04/19 12:18:54;;;;;;;;;;;21.30;57.20;;;;;;5005477;28;19929;-68
2022/04/19 12:21:38;;;;;;;;;;;21.20;56.00;;;;;;5024530;28;19930;-68
2022/04/19 12:24:18;;;;;;;;;;;21.40;55.60;;;;;;5002580;28;19926;-67
2022/04/19 12:26:44;;;;;;;;;;;21.80;54.20;;;;;;5008774;28;19961;-68
2022/04/19 12:29:13;;;;;;;;;;;21.90;56.80;;;;;;5009461;28;20064;-67
2022/04/19 12:31:40;;;;;;;;;;;21.80;54.80;;;;;;5009599;28;19933;-68
2022/04/19 12:34:07;;;;;;;;;;;22.20;55.50;;;;;;5009079;28;19960;-68
2022/04/19 12:36:45;;;;;;;;;;;22.10;53.50;;;;;;5006239;28;19932;-69
2022/04/19 12:39:11;;;;;;;;;;;22.30;55.00;;;;;;5008245;28;19965;-68
2022/04/19 12:41:36;;;;;;;;;;;22.40;54.10;;;;;;5006520;28;19965;-67
2022/04/19 12:44:02;;;;;;;;;;;22.50;54.10;;;;;;5009696;28;19947;-69
2022/04/19 12:46:28;;;;;;;;;;;22.60;53.20;;;;;;5008291;28;20306;-67
2022/04/19 12:48:53;;;;;;;;;;;22.60;52.60;;;;;;5007414;28;19932;-68
2022/04/19 12:51:26;;;;;;;;;;;22.40;52.90;;;;;;4989844;28;20350;-67
2022/04/19 12:54:04;;;;;;;;;;;22.60;52.10;;;;;;5006342;28;19933;-67
2022/04/19 12:56:30;;;;;;;;;;;22.50;52.80;;;;;;5005758;28;20303;-68
2022/04/19 12:58:59;;;;;;;;;;;22.50;53.00;;;;;;5009336;28;20012;-67
2022/04/19 13:01:24;;;;;;;;;;;22.80;53.20;;;;;;4990685;28;20015;-67
2022/04/19 13:03:50;;;;;;;;;;;22.90;51.70;;;;;;4990670;28;19976;-67
2022/04/19 13:14:46;;;;;;;;;;;22.80;51.30;;;;;;4991504;28;19926;-68
2022/04/19 13:17:12;;;;;;;;;;;22.30;50.90;;;;;;5008140;28;20337;-68
2022/04/19 13:19:45;;;;;;;;;;;22.70;52.30;;;;;;5016364;28;20024;-67
2022/04/19 13:22:11;;;;;;;;;;;22.60;52.30;;;;;;4995599;28;19976;-67
2022/04/19 13:24:38;;;;;;;;;;;23.00;52.00;;;;;;5011542;28;19968;-67
2022/04/19 13:27:06;;;;;;;;;;;23.20;51.80;;;;;;5008434;28;19925;-68
2022/04/19 13:29:33;;;;;;;;;;;23.30;51.10;;;;;;4991498;28;19932;-67
2022/04/19 13:31:58;;;;;;;;;;;22.80;50.00;;;;;;5000228;28;19925;-67
2022/04/19 13:34:24;;;;;;;;;;;22.90;50.50;;;;;;5001071;28;20355;-67
2022/04/19 13:36:51;;;;;;;;;;;23.00;51.50;;;;;;5012021;28;21251;-68
2022/04/19 13:39:16;;;;;;;;;;;23.00;49.90;;;;;;4991189;28;20415;-67
2022/04/19 13:41:42;;;;;;;;;;;23.00;51.00;;;;;;4998426;28;20214;-68
2022/04/19 13:44:11;;;;;;;;;;;22.90;50.70;;;;;;5012368;28;19975;-68
2022/04/19 13:46:37;;;;;;;;;;;22.60;50.70;;;;;;5010660;28;19981;-68
2022/04/19 13:49:03;;;;;;;;;;;22.20;51.10;;;;;;5022598;28;20307;-67
2022/04/19 13:51:29;;;;;;;;;;;21.90;52.90;;;;;;4992704;28;19925;-67
2022/04/19 13:53:54;;;;;;;;;;;21.70;52.10;;;;;;5004813;28;20380;-68
2022/04/19 13:56:20;;;;;;;;;;;21.80;52.20;;;;;;5011251;28;20490;-67
2022/04/19 13:58:46;;;;;;;;;;;21.80;52.10;;;;;;5011978;28;20314;-68
2022/04/19 14:01:12;;;;;;;;;;;22.20;51.70;;;;;;5010517;28;19932;-67
2022/04/19 14:03:37;;;;;;;;;;;22.10;51.60;;;;;;5026559;28;19932;-67
2022/04/19 14:06:03;;;;;;;;;;;22.50;52.10;;;;;;4994945;28;19926;-69
2022/04/19 14:08:29;;;;;;;;;;;22.60;50.20;;;;;;5007309;28;20482;-67
2022/04/19 14:10:58;;;;;;;;;;;22.30;50.40;;;;;;5010804;28;20685;-68
2022/04/19 14:13:24;;;;;;;;;;;22.20;51.30;;;;;;4994254;28;20027;-67
2022/04/19 14:15:51;;;;;;;;;;;21.70;51.40;;;;;;4991804;28;19961;-68
2022/04/19 14:18:18;;;;;;;;;;;21.20;51.40;;;;;;5002014;28;20015;-70
2022/04/19 14:20:43;;;;;;;;;;;20.20;51.00;;;;;;5009429;28;20062;-68
2022/04/19 14:23:09;;;;;;;;;;;19.60;52.70;;;;;;4992980;28;20016;-67
2022/04/19 14:25:35;;;;;;;;;;;19.20;53.90;;;;;;4993156;28;19932;-67
2022/04/19 14:28:00;;;;;;;;;;;18.60;55.20;;;;;;5011923;28;20438;-68
2022/04/19 14:33:16;;;;;;;;;;;17.90;56.90;;;;;;5002456;28;19967;-67
2022/04/19 14:35:45;;;;;;;;;;;17.60;57.40;;;;;;4985164;28;19926;-68
2022/04/19 14:38:10;;;;;;;;;;;17.40;58.00;;;;;;5002620;28;20508;-68
2022/04/19 14:40:36;;;;;;;;;;;17.30;59.10;;;;;;5010176;28;19925;-67
2022/04/19 14:43:01;;;;;;;;;;;17.20;58.70;;;;;;5011451;28;20367;-69
2022/04/19 14:45:27;;;;;;;;;;;17.10;59.50;;;;;;5011005;28;19941;-68
2022/04/19 14:47:52;;;;;;;;;;;17.00;59.90;;;;;;5010550;28;19925;-67
2022/04/19 14:50:18;;;;;;;;;;;17.00;59.10;;;;;;4997543;28;20454;-69
2022/04/19 14:52:48;;;;;;;;;;;16.80;59.10;;;;;;5003816;28;19926;-68
2022/04/19 14:55:15;;;;;;;;;;;16.80;59.40;;;;;;5003195;28;19925;-68
2022/04/19 14:57:44;;;;;;;;;;;16.70;60.00;;;;;;5013135;28;19981;-67
2022/04/19 15:00:10;;;;;;;;;;;16.60;60.40;;;;;;5009086;28;19933;-67
2022/04/19 15:02:35;;;;;;;;;;;16.70;60.00;;;;;;5002948;28;19926;-68
2022/04/19 15:05:04;;;;;;;;;;;16.60;60.10;;;;;;4994564;28;19977;-67
2022/04/19 15:07:33;;;;;;;;;;;16.70;59.80;;;;;;5006155;28;19932;-69
2022/04/19 15:09:59;;;;;;;;;;;16.70;60.00;;;;;;4993543;28;19952;-67
2022/04/19 15:12:26;;;;;;;;;;;16.70;60.10;;;;;;4995239;28;19926;-67
2022/04/19 15:14:52;;;;;;;;;;;16.70;60.20;;;;;;5009567;28;20564;-68
2022/04/19 15:17:18;;;;;;;;;;;16.70;59.80;;;;;;5006297;28;19926;-67
2022/04/19 15:19:43;;;;;;;;;;;16.50;60.20;;;;;;5008850;28;19925;-67
2022/04/19 15:22:10;;;;;;;;;;;16.50;60.50;;;;;;5007285;28;20056;-67